KI4BIY Weather Reports


time (UTC)temp
F
wind
direction
speed
knots
gust
knots
rain 1hr
in
rain 24hr
in
rain mn
in
humidity
%
barometer
mb
20260510203535 82 232 0.0 0.0 0.00 0.00 0.00 51 1014.5
20260510203032 82 232 0.0 0.0 0.00 0.00 0.00 46 1014.7
20260510202531 83 231 0.0 0.0 0.00 0.00 0.00 48 1014.5
20260510202028 83 214 0.9 0.9 0.00 0.00 0.00 46 1014.6
20260510201525 83 237 0.0 0.0 0.00 0.00 0.00 44 1014.8
20260510201022 82 213 0.0 0.9 0.00 0.00 0.00 48 1014.8
20260510200517 83 54 0.0 0.0 0.00 0.00 0.00 43 1014.8
20260510200015 83 94 0.9 0.9 0.00 0.00 0.00 47 1014.9
20260510195513 83 53 0.0 0.0 0.00 0.00 0.00 46 1014.7
20260510195008 83 84 0.9 0.9 0.00 0.00 0.00 47 1014.8
20260510194504 84 76 0.9 1.7 0.00 0.00 0.00 47 1015.0
20260510194000 83 189 0.0 0.0 0.00 0.00 0.00 47 1014.9
20260510193455 84 78 1.7 2.6 0.00 0.00 0.00 46 1014.9
20260510192951 84 64 2.6 2.6 0.00 0.00 0.00 44 1015.0
20260510192446 84 246 0.0 0.0 0.00 0.00 0.00 49 1014.9
20260510191942 82 31 0.0 0.0 0.00 0.00 0.00 55 1015.0
20260510191438 83 60 0.0 0.0 0.00 0.00 0.00 53 1015.1
20260510190936 84 313 0.0 0.0 0.00 0.00 0.00 51 1015.1
20260510190433 84 313 0.0 0.0 0.00 0.00 0.00 50 1015.2
20260510185929 86 314 0.0 0.0 0.00 0.00 0.00 50 1015.4
20260510185427 87 312 0.0 0.0 0.00 0.00 0.00 48 1015.3
20260510184924 87 251 0.0 0.0 0.00 0.00 0.00 45 1015.2
20260510184421 87 258 0.0 0.0 0.00 0.00 0.00 49 1015.0
20260510183920 87 251 0.9 1.7 0.00 0.00 0.00 46 1015.2
20260510183417 87 257 0.0 0.9 0.00 0.00 0.00 48 1015.4
20260510182912 87 277 0.0 0.0 0.00 0.00 0.00 50 1015.1
20260510182409 85 265 0.0 0.0 0.00 0.00 0.00 50 1015.0
20260510181905 85 236 0.0 0.0 0.00 0.00 0.00 52 1015.3
20260510181402 85 217 0.9 0.9 0.00 0.00 0.00 54 1015.1
20260510180858 85 251 0.0 0.9 0.00 0.00 0.00 50 1015.2
20260510180356 84 229 0.9 0.9 0.00 0.00 0.00 50 1015.3
20260510175853 83 85 1.7 1.7 0.00 0.00 0.00 49 1015.1
20260510175348 84 206 1.7 1.7 0.00 0.00 0.00 49 1015.3
20260510174844 85 189 0.9 0.9 0.00 0.00 0.00 51 1015.4
20260510174343 86 267 0.0 0.0 0.00 0.00 0.00 43 1015.4
20260510173838 85 266 0.0 0.0 0.00 0.00 0.00 48 1015.1
20260510173334 85 36 0.0 0.0 0.00 0.00 0.00 48 1015.4
20260510172831 84 38 0.0 0.9 0.00 0.00 0.00 45 1015.4
20260510172327 83 208 0.0 0.0 0.00 0.00 0.00 56 1015.5
20260510171823 82 347 0.0 0.9 0.00 0.00 0.00 62 1015.5
20260510171321 83 347 0.9 0.9 0.00 0.00 0.00 59 1015.4
20260510170818 83 51 0.0 0.0 0.00 0.00 0.00 59 1015.6
20260510170314 82 256 0.0 0.0 0.00 0.00 0.00 55 1015.9
20260510165809 83 256 0.0 0.0 0.00 0.00 0.00 57 1015.8
20260510165307 85 246 0.9 1.7 0.00 0.00 0.00 59 1015.5
20260510164803 85 235 0.0 0.9 0.00 0.00 0.00 59 1015.9
20260510164301 83 181 0.9 1.7 0.00 0.00 0.00 61 1016.0
20260510163801 83 278 0.9 0.9 0.00 0.00 0.00 62 1015.8
20260510163257 83 245 0.0 0.9 0.00 0.00 0.00 58 1015.7
20260510162756 83 255 0.9 0.9 0.00 0.00 0.00 61 1015.8
20260510162254 82 255 0.0 0.9 0.00 0.00 0.00 65 1015.8
20260510161749 83 121 0.9 1.7 0.00 0.00 0.00 62 1015.9
20260510161245 82 256 0.0 0.0 0.00 0.00 0.00 64 1015.9
20260510160743 82 212 0.9 0.9 0.00 0.00 0.00 65 1016.1
20260510160238 83 242 1.7 1.7 0.00 0.00 0.00 62 1016.0
20260510155734 82 111 0.9 0.9 0.00 0.00 0.00 64 1015.9
20260510155230 82 241 0.9 0.9 0.00 0.00 0.00 68 1015.5
20260510154726 83 240 0.0 0.9 0.00 0.00 0.00 67 1015.6
20260510154222 83 212 0.0 0.0 0.00 0.00 0.00 67 1015.8
20260510153717 82 243 0.0 0.0 0.00 0.00 0.00 68 1015.8
20260510153214 82 136 0.0 0.0 0.00 0.00 0.00 67 1015.4
20260510152710 81 239 0.0 0.0 0.00 0.00 0.00 71 1015.8
20260510152206 81 325 0.0 0.9 0.00 0.00 0.00 70 1015.5
20260510151703 80 219 0.9 0.9 0.00 0.00 0.00 71 1015.8
20260510151202 79 218 0.0 0.0 0.00 0.00 0.00 75 1015.6
20260510150657 79 214 0.0 0.9 0.00 0.00 0.00 74 1015.5
20260510150152 80 252 0.9 1.7 0.00 0.00 0.00 73 1015.7
20260510145649 78 244 0.9 0.9 0.00 0.00 0.00 75 1015.5
20260510145146 77 241 0.9 0.9 0.00 0.00 0.00 77 1015.5
20260510144641 78 252 0.0 0.0 0.00 0.00 0.00 76 1015.8
20260510144138 77 246 0.0 0.0 0.00 0.00 0.00 79 1015.7
20260510143633 76 257 0.0 0.0 0.00 0.00 0.00 79 1015.6
20260510143131 75 258 0.0 0.0 0.00 0.00 0.00 80 1015.6
20260510142627 75 258 0.0 0.0 0.00 0.00 0.00 79 1015.7
20260510142124 76 258 0.0 0.0 0.00 0.00 0.00 78 1015.8
20260510141620 76 259 0.0 0.0 0.00 0.00 0.00 79 1015.8
20260510141119 76 262 0.0 0.0 0.00 0.00 0.00 78 1015.8
20260510140615 75 253 0.0 0.0 0.00 0.00 0.00 79 1015.4
20260510140114 74 253 0.0 0.0 0.00 0.00 0.00 82 1015.4
20260510135610 74 253 0.0 0.0 0.00 0.00 0.00 83 1015.3
20260510135106 74 253 0.0 0.0 0.00 0.00 0.00 82 1015.4
20260510134603 73 253 0.0 0.0 0.00 0.00 0.00 84 1015.3
20260510134100 72 253 0.0 0.0 0.00 0.00 0.00 85 1015.2
20260510133556 71 253 0.0 0.0 0.00 0.00 0.00 86 1015.2
20260510133052 70 254 0.0 0.0 0.00 0.00 0.00 88 1015.1
20260510132549 70 253 0.0 0.0 0.00 0.00 0.00 87 1015.4
20260510132046 69 288 0.0 0.0 0.00 0.00 0.00 89 1015.5
20260510131543 69 288 0.0 0.0 0.00 0.00 0.00 90 1015.5
20260510131041 69 288 0.0 0.0 0.00 0.00 0.00 90 1015.5
20260510130537 69 262 0.0 0.0 0.00 0.00 0.00 89 1015.5
20260510130034 68 262 0.0 0.0 0.00 0.00 0.00 90 1015.4
20260510125531 68 262 0.0 0.0 0.00 0.00 0.00 90 1015.4
20260510125027 68 262 0.0 0.0 0.00 0.00 0.00 91 1015.2
20260510124524 67 262 0.0 0.0 0.00 0.00 0.00 92 1015.4
20260510124021 67 262 0.0 0.0 0.00 0.00 0.00 92 1015.3
20260510123516 67 262 0.0 0.0 0.00 0.00 0.00 92 1015.2
20260510123012 66 262 0.0 0.0 0.00 0.00 0.00 93 1014.9
20260510122508 66 262 0.0 0.0 0.00 0.00 0.00 93 1015.1
20260510122004 66 262 0.0 0.0 0.00 0.00 0.00 94 1014.7
20260510121501 65 262 0.0 0.0 0.00 0.00 0.00 94 1014.8
20260510120958 65 262 0.0 0.0 0.00 0.00 0.00 94 1015.0
20260510120456 65 262 0.0 0.0 0.00 0.00 0.00 94 1014.8
20260510115951 64 262 0.9 0.9 0.00 0.00 0.00 94 1014.8
20260510115449 64 266 0.9 0.9 0.00 0.00 0.00 94 1014.8
20260510114944 64 262 0.9 0.9 0.00 0.00 0.00 94 1014.7
20260510114442 64 262 0.9 0.9 0.00 0.00 0.00 94 1014.6
20260510113937 64 260 0.0 0.0 0.00 0.00 0.00 94 1014.4
20260510113432 64 266 0.0 0.0 0.00 0.00 0.00 94 1014.4
20260510112931 64 269 0.0 0.0 0.00 0.00 0.00 94 1014.3
20260510112428 64 266 0.0 0.0 0.00 0.00 0.00 94 1014.2
20260510111923 64 268 0.0 0.0 0.00 0.00 0.00 95 1014.2
20260510111420 63 266 0.0 0.0 0.00 0.00 0.00 95 1013.9
20260510110916 63 266 0.0 0.0 0.00 0.00 0.00 96 1014.1
20260510110412 63 269 0.0 0.0 0.00 0.00 0.00 95 1013.9
20260510105909 63 278 0.0 0.0 0.00 0.00 0.00 95 1013.9
20260510105408 63 278 0.0 0.0 0.00 0.00 0.00 96 1013.7
20260510104904 62 279 0.0 0.0 0.00 0.00 0.00 96 1013.4
20260510104401 62 279 0.0 0.0 0.00 0.00 0.00 96 1013.5
20260510103858 61 279 0.0 0.0 0.00 0.00 0.00 97 1013.4
20260510103355 62 279 0.0 0.0 0.00 0.00 0.00 97 1013.4
20260510102850 61 282 0.0 0.0 0.00 0.00 0.00 97 1013.2
20260510102346 60 285 0.0 0.0 0.00 0.00 0.00 98 1013.3
20260510101844 60 300 0.0 0.0 0.00 0.00 0.00 97 1013.4
20260510101342 60 300 0.0 0.0 0.00 0.00 0.00 97 1013.2
20260510100838 59 300 0.0 0.0 0.00 0.00 0.00 96 1013.1
20260510100336 59 300 0.0 0.0 0.00 0.00 0.00 96 1013.1
20260510095832 58 285 0.0 0.0 0.00 0.00 0.00 95 1013.1
20260510095327 58 296 0.0 0.0 0.00 0.00 0.00 95 1013.0
20260510094826 58 296 0.0 0.0 0.00 0.00 0.00 95 1012.8
20260510094321 58 296 0.0 0.0 0.00 0.00 0.00 95 1013.1
20260510093818 58 296 0.0 0.0 0.00 0.00 0.00 94 1013.0
20260510093314 59 296 0.0 0.0 0.00 0.00 0.00 94 1012.9
20260510092811 58 296 0.0 0.0 0.00 0.00 0.00 94 1012.8
20260510092307 58 296 0.0 0.0 0.00 0.00 0.00 94 1013.0
20260510091802 58 296 0.0 0.0 0.00 0.00 0.00 93 1012.9
20260510091300 58 296 0.0 0.0 0.00 0.00 0.00 93 1012.6
20260510090756 58 314 0.0 0.0 0.00 0.00 0.00 92 1012.9
20260510090253 58 314 0.0 0.0 0.00 0.00 0.00 92 1012.8
20260510085749 58 314 0.0 0.0 0.00 0.00 0.00 92 1012.5
20260510085243 57 317 0.0 0.0 0.00 0.00 0.00 93 1012.6
20260510084739 57 282 0.0 0.0 0.00 0.00 0.00 93 1012.7
20260510084237 57 282 0.0 0.0 0.00 0.00 0.00 93 1012.8
20260510083733 57 282 0.0 0.0 0.00 0.00 0.00 93 1012.6
20260510083230 57 282 0.0 0.0 0.00 0.00 0.00 92 1012.8
20260510082726 56 282 0.0 0.0 0.00 0.00 0.00 92 1012.6
20260510082223 56 282 0.0 0.0 0.00 0.00 0.00 92 1012.5
20260510081722 56 282 0.0 0.0 0.00 0.00 0.00 91 1012.6
20260510081219 56 282 0.0 0.0 0.00 0.00 0.00 91 1012.3
20260510080719 56 282 0.0 0.0 0.00 0.00 0.00 91 1012.6
20260510080215 57 282 0.0 0.0 0.00 0.00 0.00 91 1012.3
20260510075712 57 282 0.0 0.0 0.00 0.00 0.00 91 1012.5
20260510075209 57 282 0.0 0.0 0.00 0.00 0.00 90 1012.6
20260510074706 57 282 0.0 0.0 0.00 0.00 0.00 89 1012.3
20260510074202 57 282 0.0 0.0 0.00 0.00 0.00 89 1012.3
20260510073659 57 282 0.0 0.0 0.00 0.00 0.00 88 1012.3
20260510073155 57 282 0.0 0.0 0.00 0.00 0.00 87 1012.3
20260510072651 57 282 0.0 0.0 0.00 0.00 0.00 88 1012.7
20260510072148 58 282 0.0 0.0 0.00 0.00 0.00 86 1012.5
20260510071644 58 282 0.0 0.0 0.00 0.00 0.00 86 1012.6
20260510071141 58 282 0.0 0.0 0.00 0.00 0.00 87 1012.4
20260510070639 58 282 0.0 0.0 0.00 0.00 0.00 85 1012.5
20260510070136 59 282 0.0 0.0 0.00 0.00 0.00 87 1012.4
20260510065631 59 255 0.0 0.0 0.00 0.00 0.00 87 1012.5
20260510065128 59 311 0.0 0.0 0.00 0.00 0.00 87 1012.4
20260510064624 59 359 0.0 0.0 0.00 0.00 0.00 83 1012.5
20260510064121 59 306 0.0 0.0 0.00 0.00 0.00 80 1012.5
20260510063618 59 302 0.0 0.0 0.00 0.00 0.00 83 1012.3
20260510063115 60 302 0.0 0.0 0.00 0.00 0.00 85 1012.5
20260510062610 60 302 0.0 0.0 0.00 0.00 0.00 82 1012.4
20260510062106 60 302 0.0 0.0 0.00 0.00 0.00 81 1012.2
20260510061603 60 302 0.0 0.0 0.00 0.00 0.00 84 1012.2
20260510061100 60 301 0.0 0.0 0.00 0.00 0.00 80 1012.0
20260510060556 61 295 0.0 0.0 0.00 0.00 0.00 81 1011.8
20260510060053 61 294 0.0 0.0 0.00 0.00 0.00 76 1011.9
20260510055548 61 294 0.0 0.0 0.00 0.00 0.00 77 1012.0
20260510055047 60 294 0.0 0.0 0.00 0.00 0.00 78 1012.2
20260510054542 60 294 0.0 0.0 0.00 0.00 0.00 78 1011.8
20260510054037 60 294 0.0 0.0 0.00 0.00 0.00 79 1011.9
20260510053532 59 294 0.0 0.0 0.00 0.00 0.00 80 1012.0
20260510053029 59 294 0.0 0.0 0.00 0.00 0.00 84 1011.8
20260510052525 59 294 0.0 0.0 0.00 0.00 0.00 87 1012.2
20260510052021 60 294 0.0 0.0 0.00 0.00 0.00 87 1011.9
20260510051517 60 294 0.0 0.0 0.00 0.00 0.00 85 1012.1
20260510051014 60 295 0.0 0.0 0.00 0.00 0.00 81 1012.0
20260510050511 60 294 0.0 0.0 0.00 0.00 0.00 83 1012.0
20260510050008 60 294 0.0 0.0 0.00 0.00 0.00 83 1012.1
20260510045506 60 294 0.0 0.0 0.00 0.00 0.00 83 1012.0
20260510045001 60 294 0.0 0.0 0.00 0.00 0.00 83 1011.9
20260510044459 60 294 0.0 0.0 0.00 0.00 0.00 83 1011.8
20260510043955 60 294 0.0 0.0 0.00 0.00 0.00 83 1011.8
20260510043451 60 294 0.0 0.0 0.00 0.00 0.00 83 1011.7
20260510042950 60 282 0.0 0.0 0.00 0.00 0.00 85 1011.8
20260510042445 59 256 0.0 0.0 0.00 0.00 0.00 82 1011.9
20260510041941 59 256 0.0 0.0 0.00 0.00 0.00 82 1011.7
20260510041438 60 256 0.0 0.0 0.00 0.00 0.00 82 1012.0
20260510040936 60 256 0.0 0.0 0.00 0.00 0.00 83 1011.9
20260510040432 60 256 0.0 0.0 0.00 0.00 0.00 82 1011.9
20260510035928 60 256 0.0 0.0 0.00 0.00 0.00 81 1011.8
20260510035425 60 254 0.0 0.0 0.00 0.00 0.00 81 1012.0
20260510034925 60 290 0.0 0.0 0.00 0.00 0.00 82 1011.9
20260510034424 60 290 0.0 0.0 0.00 0.00 0.00 80 1012.0
20260510033919 60 290 0.0 0.0 0.00 0.00 0.00 80 1011.8
20260510033416 60 290 0.0 0.0 0.00 0.00 0.00 77 1012.1
20260510032913 61 290 0.0 0.0 0.00 0.00 0.00 77 1011.9
20260510032409 61 290 0.0 0.0 0.00 0.00 0.00 78 1012.1
20260510031905 61 290 0.0 0.0 0.00 0.00 0.00 77 1012.1
20260510031401 61 290 0.0 0.0 0.00 0.00 0.00 78 1012.0
20260510030900 61 290 0.0 0.0 0.00 0.00 0.00 73 1012.0
20260510030357 62 290 0.0 0.0 0.00 0.00 0.00 74 1011.9
20260510025855 62 290 0.0 0.0 0.00 0.00 0.00 77 1012.2
20260510025352 62 290 0.0 0.0 0.00 0.00 0.00 74 1011.8
20260510024849 62 290 0.0 0.0 0.00 0.00 0.00 77 1012.0
20260510024346 62 290 0.0 0.0 0.00 0.00 0.00 75 1011.9
20260510023842 63 290 0.0 0.0 0.00 0.00 0.00 75 1011.7
20260510023338 63 290 0.0 0.0 0.00 0.00 0.00 74 1011.9
20260510022836 63 290 0.0 0.0 0.00 0.00 0.00 72 1011.8
20260510022335 63 290 0.0 0.0 0.00 0.00 0.00 73 1011.7
20260510021834 64 290 0.0 0.0 0.00 0.00 0.00 74 1011.5
20260510021332 64 290 0.0 0.0 0.00 0.00 0.00 71 1011.5
20260510020828 64 290 0.0 0.0 0.00 0.00 0.00 71 1011.5
20260510020328 64 290 0.0 0.0 0.00 0.00 0.00 70 1011.5
20260510015824 64 290 0.0 0.0 0.00 0.00 0.00 71 1011.3
20260510015321 65 290 0.0 0.0 0.00 0.00 0.00 77 1011.2
20260510014816 65 290 0.0 0.0 0.00 0.00 0.00 71 1011.2
20260510014313 65 290 0.0 0.0 0.00 0.00 0.00 68 1011.0
20260510013809 65 290 0.0 0.0 0.00 0.00 0.00 69 1011.1
20260510013306 66 290 0.0 0.0 0.00 0.00 0.00 72 1011.0
20260510012801 66 290 0.0 0.0 0.00 0.00 0.00 69 1011.0
20260510012301 67 290 0.0 0.0 0.00 0.00 0.00 70 1010.8
20260510011800 67 290 0.0 0.0 0.00 0.00 0.00 67 1011.0
20260510011256 67 290 0.0 0.0 0.00 0.00 0.00 65 1010.8
20260510010753 68 290 0.0 0.0 0.00 0.00 0.00 66 1010.6
20260510010250 68 290 0.0 0.0 0.00 0.00 0.00 65 1010.7
20260510005747 69 290 0.0 0.0 0.00 0.00 0.00 65 1010.3
20260510005243 69 290 0.0 0.0 0.00 0.00 0.00 62 1010.4
20260510004741 69 290 0.0 0.0 0.00 0.00 0.00 60 1010.6
20260510004239 70 290 0.0 0.0 0.00 0.00 0.00 59 1010.4
20260510003736 71 290 0.0 0.0 0.00 0.00 0.00 58 1010.4
20260510003232 71 290 0.0 0.0 0.00 0.00 0.00 55 1010.1
20260510002731 71 290 0.0 0.0 0.00 0.00 0.00 54 1010.1
20260510002229 72 290 0.0 0.0 0.00 0.00 0.00 55 1010.0
20260510001725 72 290 0.0 0.0 0.00 0.00 0.00 54 1010.1
20260510001224 73 290 0.0 0.0 0.00 0.00 0.00 55 1010.0
20260510000719 73 290 0.0 0.0 0.00 0.00 0.00 54 1009.8
20260510000218 73 290 0.0 0.0 0.00 0.00 0.00 54 1010.0
20260509235713 74 290 0.0 0.0 0.00 0.00 0.00 51 1009.6
20260509235210 74 290 0.0 0.0 0.00 0.00 0.00 50 1010.2
20260509234706 74 290 0.0 0.0 0.00 0.00 0.00 48 1009.7
20260509234203 75 290 0.0 0.0 0.00 0.00 0.00 47 1009.6
20260509233701 75 290 0.0 0.0 0.00 0.00 0.00 45 1009.8
20260509233159 75 290 0.0 0.0 0.00 0.00 0.00 44 1009.6
20260509232655 76 290 0.0 0.0 0.00 0.00 0.00 43 1009.7
20260509232151 76 290 0.0 0.0 0.00 0.00 0.00 41 1009.7
20260509231648 76 290 0.0 0.0 0.00 0.00 0.00 40 1009.7
20260509231146 76 290 0.0 0.0 0.00 0.00 0.00 41 1009.5
20260509230642 76 290 0.0 0.0 0.00 0.00 0.00 41 1009.6
20260509230140 77 290 0.0 0.0 0.00 0.00 0.00 42 1009.6
20260509225635 77 290 0.0 0.0 0.00 0.00 0.00 40 1009.2
20260509225131 76 311 0.0 0.0 0.00 0.00 0.00 42 1009.6
20260509224626 77 311 0.0 0.0 0.00 0.00 0.00 42 1009.4
20260509224124 77 311 0.0 0.0 0.00 0.00 0.00 43 1009.2
20260509223620 77 311 0.0 0.0 0.00 0.00 0.00 41 1009.5
20260509223118 77 311 0.0 0.0 0.00 0.00 0.00 40 1009.5
20260509222614 77 311 0.0 0.0 0.00 0.00 0.00 46 1009.4
20260509222110 77 312 0.0 0.0 0.00 0.00 0.00 47 1009.5
20260509221606 78 311 0.9 0.9 0.00 0.00 0.00 48 1009.7
20260509221102 78 312 0.0 0.0 0.00 0.00 0.00 45 1009.7
20260509220558 78 269 0.0 0.0 0.00 0.00 0.00 44 1009.5
20260509220054 78 250 0.0 0.0 0.00 0.00 0.00 44 1009.5
20260509215550 78 250 0.0 0.0 0.00 0.00 0.00 45 1009.6
20260509215048 79 229 0.9 1.7 0.00 0.00 0.00 42 1009.6
20260509214544 79 336 0.0 0.0 0.00 0.00 0.00 38 1009.6
20260509214041 79 255 0.0 0.0 0.00 0.00 0.00 38 1009.7
20260509213537 79 297 0.0 0.0 0.00 0.00 0.00 36 1009.5
20260509213034 80 267 0.0 0.0 0.00 0.00 0.00 38 1009.9
20260509212531 80 267 0.0 0.0 0.00 0.00 0.00 38 1009.6
20260509212029 80 277 0.0 0.9 0.00 0.00 0.00 40 1009.8
20260509211524 80 257 0.0 0.0 0.00 0.00 0.00 38 1009.9
20260509211021 80 255 0.9 0.9 0.00 0.00 0.00 39 1009.7
20260509210518 80 247 0.0 0.9 0.00 0.00 0.00 37 1009.9
20260509210014 80 246 0.0 0.0 0.00 0.00 0.00 36 1009.9
20260509205509 80 237 0.0 0.0 0.00 0.00 0.00 40 1009.6
20260509205004 81 47 0.0 0.0 0.00 0.00 0.00 42 1009.9
20260509204500 81 48 0.0 0.0 0.00 0.00 0.00 39 1009.6
20260509203957 80 75 0.0 0.9 0.00 0.00 0.00 38 1010.0